Seadrift, Texas
Current Conditions -  °F | °C
As of 10:55 AM on Monday 22 Dec 2014 (Local Time) from KPKV Reporting Station
Scattered Clouds Scattered Clouds  
Wind Chill: 68°   Ceiling: Unl
Heat Index: 68°   Visibility: 10mi
Dew Point: 63°   Wind: 15mph
Humidity: 84%   Direction: 230°SW
Pressure: 29.78"   Gusts: 20mph
Location:  28.42°N, 96.71°W
Report Text: KPKV 221655Z AUTO 23013G17KT 10SM SCT019 20/17 A2978 RMK AO2 T02020174
Loading
Personal Weather Stations






























Interactive Weather Map New forecast layout! Learn more

10-Day Weather Forecast

Advertisements
Track Severe Weather on mobile